sensor_id;sensor_type;location;lat;lon;timestamp;pressure;altitude;pressure_sealevel;temperature;humidity
38716;BME280;24833;49.324;8.694;2023-02-19T00:01:37;100377.41;;;9.90;78.59
38716;BME280;24833;49.324;8.694;2023-02-19T00:04:13;100374.06;;;9.88;78.19
38716;BME280;24833;49.324;8.694;2023-02-19T00:06:41;100368.72;;;9.88;78.36
38716;BME280;24833;49.324;8.694;2023-02-19T00:09:11;100372.41;;;9.87;78.45
38716;BME280;24833;49.324;8.694;2023-02-19T00:11:39;100368.25;;;9.85;78.75
38716;BME280;24833;49.324;8.694;2023-02-19T00:14:07;100371.75;;;9.85;78.85
38716;BME280;24833;49.324;8.694;2023-02-19T00:16:37;100365.78;;;9.83;78.82
38716;BME280;24833;49.324;8.694;2023-02-19T00:19:07;100342.75;;;9.82;78.36
38716;BME280;24833;49.324;8.694;2023-02-19T00:21:37;100338.41;;;9.81;78.71
38716;BME280;24833;49.324;8.694;2023-02-19T00:24:05;100356.06;;;9.82;78.52
38716;BME280;24833;49.324;8.694;2023-02-19T00:26:33;100351.75;;;9.81;78.69
38716;BME280;24833;49.324;8.694;2023-02-19T00:29:01;100328.75;;;9.80;78.86
38716;BME280;24833;49.324;8.694;2023-02-19T00:31:34;100341.47;;;9.78;78.27
38716;BME280;24833;49.324;8.694;2023-02-19T00:34:04;100359.28;;;9.77;78.66
38716;BME280;24833;49.324;8.694;2023-02-19T00:36:33;100340.78;;;9.76;78.73
38716;BME280;24833;49.324;8.694;2023-02-19T00:39:04;100349.78;;;9.75;78.47
38716;BME280;24833;49.324;8.694;2023-02-19T00:41:31;100346.28;;;9.74;78.77
38716;BME280;24833;49.324;8.694;2023-02-19T00:44:05;100355.50;;;9.72;78.53
38716;BME280;24833;49.324;8.694;2023-02-19T00:46:45;100341.50;;;9.70;78.45
38716;BME280;24833;49.324;8.694;2023-02-19T00:49:22;100346.16;;;9.68;78.64
38716;BME280;24833;49.324;8.694;2023-02-19T00:51:51;100356.19;;;9.66;79.31
38716;BME280;24833;49.324;8.694;2023-02-19T00:54:19;100355.53;;;9.64;79.26
38716;BME280;24833;49.324;8.694;2023-02-19T00:56:48;100346.88;;;9.62;79.24
38716;BME280;24833;49.324;8.694;2023-02-19T00:59:16;100348.88;;;9.60;78.76
38716;BME280;24833;49.324;8.694;2023-02-19T01:01:43;100340.06;;;9.59;79.05
38716;BME280;24833;49.324;8.694;2023-02-19T01:04:11;100345.56;;;9.58;79.35
38716;BME280;24833;49.324;8.694;2023-02-19T01:06:38;100342.22;;;9.55;79.32
38716;BME280;24833;49.324;8.694;2023-02-19T01:09:05;100340.56;;;9.54;79.56
38716;BME280;24833;49.324;8.694;2023-02-19T01:11:34;100352.44;;;9.52;79.12
38716;BME280;24833;49.324;8.694;2023-02-19T01:14:02;100358.75;;;9.51;79.47
38716;BME280;24833;49.324;8.694;2023-02-19T01:16:29;100349.13;;;9.50;79.50
38716;BME280;24833;49.324;8.694;2023-02-19T01:18:57;100343.09;;;9.48;79.14
38716;BME280;24833;49.324;8.694;2023-02-19T01:21:26;100339.59;;;9.47;79.38
38716;BME280;24833;49.324;8.694;2023-02-19T01:23:55;100352.28;;;9.45;79.34
38716;BME280;24833;49.324;8.694;2023-02-19T01:26:28;100357.63;;;9.45;79.47
38716;BME280;24833;49.324;8.694;2023-02-19T01:28:56;100351.47;;;9.45;79.52
38716;BME280;24833;49.324;8.694;2023-02-19T01:31:24;100358.28;;;9.47;79.92
38716;BME280;24833;49.324;8.694;2023-02-19T01:33:58;100367.63;;;9.43;79.44
38716;BME280;24833;49.324;8.694;2023-02-19T01:36:26;100359.47;;;9.45;79.33
38716;BME280;24833;49.324;8.694;2023-02-19T01:38:54;100356.78;;;9.45;79.75
38716;BME280;24833;49.324;8.694;2023-02-19T01:41:24;100350.63;;;9.44;79.88
38716;BME280;24833;49.324;8.694;2023-02-19T01:44:04;100348.97;;;9.43;79.16
38716;BME280;24833;49.324;8.694;2023-02-19T01:46:37;100335.66;;;9.43;79.49
38716;BME280;24833;49.324;8.694;2023-02-19T01:49:17;100318.97;;;9.41;79.26
38716;BME280;24833;49.324;8.694;2023-02-19T01:51:53;100319.81;;;9.42;79.58
38716;BME280;24833;49.324;8.694;2023-02-19T01:54:26;100319.81;;;9.42;79.93
38716;BME280;24833;49.324;8.694;2023-02-19T01:56:55;100326.97;;;9.41;79.80
38716;BME280;24833;49.324;8.694;2023-02-19T01:59:23;100323.66;;;9.39;79.83
38716;BME280;24833;49.324;8.694;2023-02-19T02:01:51;100329.00;;;9.39;80.16
38716;BME280;24833;49.324;8.694;2023-02-19T02:04:18;100327.34;;;9.38;80.36
38716;BME280;24833;49.324;8.694;2023-02-19T02:06:55;100322.34;;;9.35;80.04
38716;BME280;24833;49.324;8.694;2023-02-19T02:09:27;100328.69;;;9.34;80.00
38716;BME280;24833;49.324;8.694;2023-02-19T02:12:13;100335.00;;;9.33;80.34
38716;BME280;24833;49.324;8.694;2023-02-19T02:14:45;100308.53;;;9.32;79.90
38716;BME280;24833;49.324;8.694;2023-02-19T02:17:30;100311.03;;;9.33;80.93
38716;BME280;24833;49.324;8.694;2023-02-19T02:23:01;100322.06;;;9.30;80.50
38716;BME280;24833;49.324;8.694;2023-02-19T02:25:57;100296.38;;;9.29;80.40
38716;BME280;24833;49.324;8.694;2023-02-19T02:31:18;100306.41;;;9.27;79.97
38716;BME280;24833;49.324;8.694;2023-02-19T02:36:44;100307.59;;;9.24;80.28
38716;BME280;24833;49.324;8.694;2023-02-19T02:39:18;100303.09;;;9.25;80.66
38716;BME280;24833;49.324;8.694;2023-02-19T02:41:57;100299.78;;;9.23;80.79
38716;BME280;24833;49.324;8.694;2023-02-19T02:44:50;100300.59;;;9.23;80.82
38716;BME280;24833;49.324;8.694;2023-02-19T02:51:20;100299.78;;;9.23;80.82
38716;BME280;24833;49.324;8.694;2023-02-19T02:54:31;100291.78;;;9.23;80.87
38716;BME280;24833;49.324;8.694;2023-02-19T02:57:20;100308.75;;;9.22;81.10
38716;BME280;24833;49.324;8.694;2023-02-19T02:59:52;100291.09;;;9.21;81.04
38716;BME280;24833;49.324;8.694;2023-02-19T03:02:26;100280.44;;;9.21;81.69
38716;BME280;24833;49.324;8.694;2023-02-19T03:05:07;100282.47;;;9.19;81.31
38716;BME280;24833;49.324;8.694;2023-02-19T03:08:17;100282.78;;;9.16;80.69
38716;BME280;24833;49.324;8.694;2023-02-19T03:11:03;100289.94;;;9.15;81.01
38716;BME280;24833;49.324;8.694;2023-02-19T03:14:36;100297.47;;;9.12;80.55
38716;BME280;24833;49.324;8.694;2023-02-19T03:17:09;100299.31;;;9.11;80.99
38716;BME280;24833;49.324;8.694;2023-02-19T03:20:00;100299.50;;;9.10;81.29
38716;BME280;24833;49.324;8.694;2023-02-19T03:22:34;100299.50;;;9.10;81.18
38716;BME280;24833;49.324;8.694;2023-02-19T03:25:11;100290.81;;;9.08;80.78
38716;BME280;24833;49.324;8.694;2023-02-19T03:28:01;100288.34;;;9.06;81.47
38716;BME280;24833;49.324;8.694;2023-02-19T03:30:38;100291.84;;;9.07;82.11
38716;BME280;24833;49.324;8.694;2023-02-19T03:33:14;100296.50;;;9.05;81.63
38716;BME280;24833;49.324;8.694;2023-02-19T03:35:53;100316.16;;;9.04;81.82
38716;BME280;24833;49.324;8.694;2023-02-19T03:38:39;100310.97;;;9.02;82.06
38716;BME280;24833;49.324;8.694;2023-02-19T03:42:05;100291.69;;;9.00;82.30
38716;BME280;24833;49.324;8.694;2023-02-19T03:44:44;100291.03;;;8.98;82.53
38716;BME280;24833;49.324;8.694;2023-02-19T03:47:29;100304.53;;;8.96;82.51
38716;BME280;24833;49.324;8.694;2023-02-19T03:50:27;100304.03;;;8.93;82.44
38716;BME280;24833;49.324;8.694;2023-02-19T03:56:13;100303.06;;;8.86;82.40
38716;BME280;24833;49.324;8.694;2023-02-19T04:01:40;100296.59;;;8.80;82.02
38716;BME280;24833;49.324;8.694;2023-02-19T04:06:52;100310.41;;;8.76;82.74
38716;BME280;24833;49.324;8.694;2023-02-19T04:09:23;100298.28;;;8.73;82.57
38716;BME280;24833;49.324;8.694;2023-02-19T04:11:58;100302.94;;;8.71;82.84
38716;BME280;24833;49.324;8.694;2023-02-19T04:14:52;100311.09;;;8.69;83.06
38716;BME280;24833;49.324;8.694;2023-02-19T04:17:30;100301.44;;;8.68;82.92
38716;BME280;24833;49.324;8.694;2023-02-19T04:20:00;100294.63;;;8.66;83.15
38716;BME280;24833;49.324;8.694;2023-02-19T04:22:29;100303.63;;;8.65;83.40
38716;BME280;24833;49.324;8.694;2023-02-19T04:24:57;100303.94;;;8.62;82.60
38716;BME280;24833;49.324;8.694;2023-02-19T04:27:24;100308.63;;;8.60;83.06
38716;BME280;24833;49.324;8.694;2023-02-19T04:29:51;100301.63;;;8.59;83.34
38716;BME280;24833;49.324;8.694;2023-02-19T04:32:18;100297.13;;;8.59;83.37
38716;BME280;24833;49.324;8.694;2023-02-19T04:34:45;100310.63;;;8.58;83.13
38716;BME280;24833;49.324;8.694;2023-02-19T04:37:12;100299.28;;;8.56;83.44
38716;BME280;24833;49.324;8.694;2023-02-19T04:39:39;100312.59;;;8.56;83.25
38716;BME280;24833;49.324;8.694;2023-02-19T04:42:06;100307.44;;;8.54;83.35
38716;BME280;24833;49.324;8.694;2023-02-19T04:44:33;100318.28;;;8.53;83.53
38716;BME280;24833;49.324;8.694;2023-02-19T04:47:00;100314.97;;;8.51;83.17
38716;BME280;24833;49.324;8.694;2023-02-19T04:49:27;100314.97;;;8.51;83.28
38716;BME280;24833;49.324;8.694;2023-02-19T04:51:54;100308.81;;;8.50;83.52
38716;BME280;24833;49.324;8.694;2023-02-19T04:54:21;100309.63;;;8.51;83.99
38716;BME280;24833;49.324;8.694;2023-02-19T04:56:49;100314.13;;;8.50;83.46
38716;BME280;24833;49.324;8.694;2023-02-19T04:59:16;100312.44;;;8.49;83.79
38716;BME280;24833;49.324;8.694;2023-02-19T05:01:43;100313.31;;;8.50;84.05
38716;BME280;24833;49.324;8.694;2023-02-19T05:04:10;100315.28;;;8.48;84.11
38716;BME280;24833;49.324;8.694;2023-02-19T05:06:37;100311.63;;;8.49;84.28
38716;BME280;24833;49.324;8.694;2023-02-19T05:09:04;100308.94;;;8.49;84.64
38716;BME280;24833;49.324;8.694;2023-02-19T05:11:31;100317.94;;;8.48;84.35
38716;BME280;24833;49.324;8.694;2023-02-19T05:13:58;100316.28;;;8.46;84.54
38716;BME280;24833;49.324;8.694;2023-02-19T05:16:25;100312.97;;;8.44;84.16
38716;BME280;24833;49.324;8.694;2023-02-19T05:18:52;100321.97;;;8.43;84.25
38716;BME280;24833;49.324;8.694;2023-02-19T05:21:19;100324.63;;;8.43;83.96
38716;BME280;24833;49.324;8.694;2023-02-19T05:23:46;100325.44;;;8.44;84.16
38716;BME280;24833;49.324;8.694;2023-02-19T05:26:20;100320.28;;;8.42;84.11
38716;BME280;24833;49.324;8.694;2023-02-19T05:28:50;100319.28;;;8.43;84.50
38716;BME280;24833;49.324;8.694;2023-02-19T05:31:18;100321.28;;;8.41;84.06
38716;BME280;24833;49.324;8.694;2023-02-19T05:33:46;100326.59;;;8.41;84.80
38716;BME280;24833;49.324;8.694;2023-02-19T05:36:18;100326.59;;;8.41;84.43
38716;BME280;24833;49.324;8.694;2023-02-19T05:38:46;100328.44;;;8.41;84.66
38716;BME280;24833;49.324;8.694;2023-02-19T05:41:16;100335.59;;;8.40;84.78
38716;BME280;24833;49.324;8.694;2023-02-19T05:43:45;100327.59;;;8.40;84.57
38716;BME280;24833;49.324;8.694;2023-02-19T05:46:17;100325.78;;;8.41;85.70
38716;BME280;24833;49.324;8.694;2023-02-19T05:48:47;100325.78;;;8.41;85.35
38716;BME280;24833;49.324;8.694;2023-02-19T05:51:17;100319.63;;;8.40;85.50
38716;BME280;24833;49.324;8.694;2023-02-19T05:53:45;100328.59;;;8.39;85.86
38716;BME280;24833;49.324;8.694;2023-02-19T05:56:38;100325.94;;;8.39;85.99
38716;BME280;24833;49.324;8.694;2023-02-19T05:59:17;100323.63;;;8.36;85.26
38716;BME280;24833;49.324;8.694;2023-02-19T06:01:44;100318.97;;;8.38;86.09
38716;BME280;24833;49.324;8.694;2023-02-19T06:04:13;100324.47;;;8.37;85.66
38716;BME280;24833;49.324;8.694;2023-02-19T06:06:42;100326.28;;;8.36;86.09
38716;BME280;24833;49.324;8.694;2023-02-19T06:09:10;100333.41;;;8.36;85.99
38716;BME280;24833;49.324;8.694;2023-02-19T06:11:37;100330.75;;;8.36;85.99
38716;BME280;24833;49.324;8.694;2023-02-19T06:14:05;100344.19;;;8.34;85.60
38716;BME280;24833;49.324;8.694;2023-02-19T06:16:32;100345.03;;;8.35;86.24
38716;BME280;24833;49.324;8.694;2023-02-19T06:19:03;100349.53;;;8.34;85.92
38716;BME280;24833;49.324;8.694;2023-02-19T06:21:30;100352.19;;;8.34;85.91
38716;BME280;24833;49.324;8.694;2023-02-19T06:23:57;100346.84;;;8.34;85.82
38716;BME280;24833;49.324;8.694;2023-02-19T06:26:24;100352.19;;;8.34;85.97
38716;BME280;24833;49.324;8.694;2023-02-19T06:28:52;100361.00;;;8.35;86.87
38716;BME280;24833;49.324;8.694;2023-02-19T06:31:21;100357.50;;;8.34;86.14
38716;BME280;24833;49.324;8.694;2023-02-19T06:33:49;100355.84;;;8.33;85.85
38716;BME280;24833;49.324;8.694;2023-02-19T06:36:20;100370.81;;;8.34;86.34
38716;BME280;24833;49.324;8.694;2023-02-19T06:38:47;100362.81;;;8.34;86.23
38716;BME280;24833;49.324;8.694;2023-02-19T06:41:14;100375.16;;;8.35;86.53
38716;BME280;24833;49.324;8.694;2023-02-19T06:43:41;100370.66;;;8.36;86.94
38716;BME280;24833;49.324;8.694;2023-02-19T06:46:10;100372.50;;;8.35;86.24
38716;BME280;24833;49.324;8.694;2023-02-19T06:48:40;100381.44;;;8.34;86.37
38716;BME280;24833;49.324;8.694;2023-02-19T06:51:13;100381.31;;;8.36;86.66
38716;BME280;24833;49.324;8.694;2023-02-19T06:53:40;100382.44;;;8.33;86.40
38716;BME280;24833;49.324;8.694;2023-02-19T06:56:29;100395.75;;;8.33;86.43
38716;BME280;24833;49.324;8.694;2023-02-19T06:59:00;100394.75;;;8.34;86.58
38716;BME280;24833;49.324;8.694;2023-02-19T07:01:29;100394.75;;;8.34;86.44
38716;BME280;24833;49.324;8.694;2023-02-19T07:03:56;100395.47;;;8.36;86.59
38716;BME280;24833;49.324;8.694;2023-02-19T07:06:25;100401.75;;;8.35;86.04
38716;BME280;24833;49.324;8.694;2023-02-19T07:08:54;100397.28;;;8.36;86.00
38716;BME280;24833;49.324;8.694;2023-02-19T07:11:21;100401.63;;;8.37;86.44
38716;BME280;24833;49.324;8.694;2023-02-19T07:13:54;100399.94;;;8.36;85.67
38716;BME280;24833;49.324;8.694;2023-02-19T07:16:22;100404.13;;;8.38;86.52
38716;BME280;24833;49.324;8.694;2023-02-19T07:18:49;100408.44;;;8.39;86.83
38716;BME280;24833;49.324;8.694;2023-02-19T07:21:17;100411.09;;;8.39;86.14
38716;BME280;24833;49.324;8.694;2023-02-19T07:23:44;100415.41;;;8.40;86.34
38716;BME280;24833;49.324;8.694;2023-02-19T07:26:15;100413.41;;;8.42;86.52
38716;BME280;24833;49.324;8.694;2023-02-19T07:28:43;100427.72;;;8.41;86.02
38716;BME280;24833;49.324;8.694;2023-02-19T07:31:12;100431.06;;;8.43;85.89
38716;BME280;24833;49.324;8.694;2023-02-19T07:33:44;100435.22;;;8.46;86.52
38716;BME280;24833;49.324;8.694;2023-02-19T07:36:13;100436.88;;;8.47;86.44
38716;BME280;24833;49.324;8.694;2023-02-19T07:38:41;100434.03;;;8.49;86.97
38716;BME280;24833;49.324;8.694;2023-02-19T07:41:08;100446.38;;;8.50;86.43
38716;BME280;24833;49.324;8.694;2023-02-19T07:43:37;100454.19;;;8.51;86.02
38716;BME280;24833;49.324;8.694;2023-02-19T07:46:07;100456.50;;;8.54;86.69
38716;BME280;24833;49.324;8.694;2023-02-19T07:48:36;100457.34;;;8.55;86.74
38716;BME280;24833;49.324;8.694;2023-02-19T07:51:05;100463.19;;;8.58;86.38
38716;BME280;24833;49.324;8.694;2023-02-19T07:53:34;100461.00;;;8.62;87.16
38716;BME280;24833;49.324;8.694;2023-02-19T07:56:04;100459.84;;;8.64;86.54
38716;BME280;24833;49.324;8.694;2023-02-19T07:58:32;100456.66;;;8.69;87.13
38716;BME280;24833;49.324;8.694;2023-02-19T08:01:21;100455.19;;;8.74;87.11
38716;BME280;24833;49.324;8.694;2023-02-19T08:04:07;100460.66;;;8.81;87.57
38716;BME280;24833;49.324;8.694;2023-02-19T08:06:35;100453.03;;;8.86;87.67
38716;BME280;24833;49.324;8.694;2023-02-19T08:09:03;100441.69;;;8.92;87.50
38716;BME280;24833;49.324;8.694;2023-02-19T08:11:30;100451.69;;;8.98;87.97
38716;BME280;24833;49.324;8.694;2023-02-19T08:14:16;100457.34;;;9.04;87.67
38716;BME280;24833;49.324;8.694;2023-02-19T08:16:50;100449.66;;;9.09;87.76
38716;BME280;24833;49.324;8.694;2023-02-19T08:19:17;100437.66;;;9.13;87.71
38716;BME280;24833;49.324;8.694;2023-02-19T08:21:45;100447.16;;;9.15;88.01
38716;BME280;24833;49.324;8.694;2023-02-19T08:24:11;100427.00;;;9.21;87.97
38716;BME280;24833;49.324;8.694;2023-02-19T08:26:38;100441.66;;;9.25;88.16
38716;BME280;24833;49.324;8.694;2023-02-19T08:29:06;100451.63;;;9.31;88.27
38716;BME280;24833;49.324;8.694;2023-02-19T08:31:33;100457.13;;;9.38;88.45
38716;BME280;24833;49.324;8.694;2023-02-19T08:34:01;100458.91;;;9.45;88.45
38716;BME280;24833;49.324;8.694;2023-02-19T08:36:28;100475.88;;;9.52;88.00
38716;BME280;24833;49.324;8.694;2023-02-19T08:38:55;100466.84;;;9.62;88.70
38716;BME280;24833;49.324;8.694;2023-02-19T08:41:22;100465.16;;;9.69;88.20
38716;BME280;24833;49.324;8.694;2023-02-19T08:43:49;100465.78;;;9.79;88.45
38716;BME280;24833;49.324;8.694;2023-02-19T08:46:16;100476.09;;;9.82;88.33
38716;BME280;24833;49.324;8.694;2023-02-19T08:48:43;100474.59;;;9.88;88.28
38716;BME280;24833;49.324;8.694;2023-02-19T08:51:10;100478.75;;;9.90;88.09
38716;BME280;24833;49.324;8.694;2023-02-19T08:53:39;100479.41;;;9.92;87.49
38716;BME280;24833;49.324;8.694;2023-02-19T08:56:15;100482.91;;;9.93;87.46
38716;BME280;24833;49.324;8.694;2023-02-19T08:58:43;100495.06;;;9.95;87.43
38716;BME280;24833;49.324;8.694;2023-02-19T09:01:14;100503.06;;;9.95;87.47
38716;BME280;24833;49.324;8.694;2023-02-19T09:03:42;100504.91;;;9.95;87.25
38716;BME280;24833;49.324;8.694;2023-02-19T09:06:16;100508.41;;;9.95;87.46
38716;BME280;24833;49.324;8.694;2023-02-19T09:08:44;100504.38;;;9.99;87.51
38716;BME280;24833;49.324;8.694;2023-02-19T09:11:11;100521.03;;;10.01;87.28
38716;BME280;24833;49.324;8.694;2023-02-19T09:13:39;100526.06;;;10.04;87.41
38716;BME280;24833;49.324;8.694;2023-02-19T09:16:06;100531.03;;;10.07;87.64
38716;BME280;24833;49.324;8.694;2023-02-19T09:18:33;100526.53;;;10.08;87.52
38716;BME280;24833;49.324;8.694;2023-02-19T09:21:01;100543.38;;;10.08;87.40
38716;BME280;24833;49.324;8.694;2023-02-19T09:23:33;100541.19;;;10.12;87.13
38716;BME280;24833;49.324;8.694;2023-02-19T09:26:02;100542.03;;;10.13;87.11
38716;BME280;24833;49.324;8.694;2023-02-19T09:28:32;100546.16;;;10.15;86.80
38716;BME280;24833;49.324;8.694;2023-02-19T09:31:08;100554.03;;;10.17;87.03
38716;BME280;24833;49.324;8.694;2023-02-19T09:33:36;100550.16;;;10.19;86.93
38716;BME280;24833;49.324;8.694;2023-02-19T09:36:03;100548.84;;;10.23;87.23
38716;BME280;24833;49.324;8.694;2023-02-19T09:38:30;100555.03;;;10.24;86.76
38716;BME280;24833;49.324;8.694;2023-02-19T09:40:58;100553.00;;;10.26;87.10
38716;BME280;24833;49.324;8.694;2023-02-19T09:43:31;100557.97;;;10.29;87.35
38716;BME280;24833;49.324;8.694;2023-02-19T09:46:11;100556.00;;;10.31;87.21
38716;BME280;24833;49.324;8.694;2023-02-19T09:48:47;100554.81;;;10.33;86.89
38716;BME280;24833;49.324;8.694;2023-02-19T09:51:15;100567.63;;;10.38;87.23
38716;BME280;24833;49.324;8.694;2023-02-19T09:53:46;100562.44;;;10.45;87.60
38716;BME280;24833;49.324;8.694;2023-02-19T09:56:16;100560.91;;;10.50;87.34
38716;BME280;24833;49.324;8.694;2023-02-19T09:58:49;100562.00;;;10.56;86.73
38716;BME280;24833;49.324;8.694;2023-02-19T10:01:16;100566.38;;;10.57;86.45
38716;BME280;24833;49.324;8.694;2023-02-19T10:03:46;100574.19;;;10.58;86.24
38716;BME280;24833;49.324;8.694;2023-02-19T10:06:23;100575.84;;;10.59;86.32
38716;BME280;24833;49.324;8.694;2023-02-19T10:09:00;100574.19;;;10.58;86.11
38716;BME280;24833;49.324;8.694;2023-02-19T10:11:35;100574.03;;;10.60;86.14
38716;BME280;24833;49.324;8.694;2023-02-19T10:14:21;100570.34;;;10.61;86.39
38716;BME280;24833;49.324;8.694;2023-02-19T10:16:51;100559.13;;;10.66;86.19
38716;BME280;24833;49.324;8.694;2023-02-19T10:19:19;100565.63;;;10.71;86.27
38716;BME280;24833;49.324;8.694;2023-02-19T10:21:46;100560.56;;;10.76;86.15
38716;BME280;24833;49.324;8.694;2023-02-19T10:24:20;100557.34;;;10.81;85.97
38716;BME280;24833;49.324;8.694;2023-02-19T10:26:51;100551.31;;;10.87;86.28
38716;BME280;24833;49.324;8.694;2023-02-19T10:29:19;100563.31;;;10.91;86.38
38716;BME280;24833;49.324;8.694;2023-02-19T10:31:47;100575.78;;;10.99;86.06
38716;BME280;24833;49.324;8.694;2023-02-19T10:34:20;100577.25;;;11.01;86.21
38716;BME280;24833;49.324;8.694;2023-02-19T10:36:50;100567.22;;;11.03;85.51
38716;BME280;24833;49.324;8.694;2023-02-19T10:41:49;100573.53;;;11.10;85.79
38716;BME280;24833;49.324;8.694;2023-02-19T10:44:25;100590.50;;;11.17;85.91
38716;BME280;24833;49.324;8.694;2023-02-19T10:46:57;100587.00;;;11.17;85.36
38716;BME280;24833;49.324;8.694;2023-02-19T10:49:38;100583.97;;;11.20;85.01
38716;BME280;24833;49.324;8.694;2023-02-19T10:52:30;100597.16;;;11.22;85.62
38716;BME280;24833;49.324;8.694;2023-02-19T10:55:24;100590.97;;;11.21;85.31
38716;BME280;24833;49.324;8.694;2023-02-19T10:57:51;100598.81;;;11.23;84.49
38716;BME280;24833;49.324;8.694;2023-02-19T11:00:29;100592.81;;;11.21;85.06
38716;BME280;24833;49.324;8.694;2023-02-19T11:03:19;100590.97;;;11.21;85.21
38716;BME280;24833;49.324;8.694;2023-02-19T11:06:00;100597.97;;;11.22;85.16
38716;BME280;24833;49.324;8.694;2023-02-19T11:08:28;100604.16;;;11.23;84.63
38716;BME280;24833;49.324;8.694;2023-02-19T11:10:56;100596.13;;;11.23;84.85
38716;BME280;24833;49.324;8.694;2023-02-19T11:13:31;100612.84;;;11.25;84.58
38716;BME280;24833;49.324;8.694;2023-02-19T11:16:04;100609.97;;;11.26;84.64
38716;BME280;24833;49.324;8.694;2023-02-19T11:18:32;100617.63;;;11.29;84.94
38716;BME280;24833;49.324;8.694;2023-02-19T11:21:04;100627.81;;;11.34;84.88
38716;BME280;24833;49.324;8.694;2023-02-19T11:23:44;100638.97;;;11.37;84.68
38716;BME280;24833;49.324;8.694;2023-02-19T11:26:22;100651.16;;;11.40;84.94
38716;BME280;24833;49.324;8.694;2023-02-19T11:29:01;100649.94;;;11.42;84.64
38716;BME280;24833;49.324;8.694;2023-02-19T11:31:38;100659.66;;;11.43;84.23
38716;BME280;24833;49.324;8.694;2023-02-19T11:37:13;100651.38;;;11.53;84.03
38716;BME280;24833;49.324;8.694;2023-02-19T11:39:44;100648.72;;;11.53;84.31
38716;BME280;24833;49.324;8.694;2023-02-19T11:42:40;100646.69;;;11.55;84.58
38716;BME280;24833;49.324;8.694;2023-02-19T11:45:35;100629.25;;;11.59;83.58
38716;BME280;24833;49.324;8.694;2023-02-19T11:51:21;100628.25;;;11.60;83.36
38716;BME280;24833;49.324;8.694;2023-02-19T11:56:40;100621.53;;;11.64;82.43
38716;BME280;24833;49.324;8.694;2023-02-19T12:04:55;100623.50;;;11.70;83.47
38716;BME280;24833;49.324;8.694;2023-02-19T12:20:13;100627.22;;;12.28;83.58
38716;BME280;24833;49.324;8.694;2023-02-19T12:26:06;100632.59;;;12.58;84.80
38716;BME280;24833;49.324;8.694;2023-02-19T12:32:31;100623.84;;;12.86;84.38
38716;BME280;24833;49.324;8.694;2023-02-19T12:38:35;100653.94;;;12.88;82.93
38716;BME280;24833;49.324;8.694;2023-02-19T12:41:19;100639.66;;;12.80;82.17
38716;BME280;24833;49.324;8.694;2023-02-19T12:44:10;100628.66;;;12.75;82.30
38716;BME280;24833;49.324;8.694;2023-02-19T12:46:58;100616.66;;;12.71;83.75
38716;BME280;24833;49.324;8.694;2023-02-19T12:49:35;100611.66;;;12.68;83.06
38716;BME280;24833;49.324;8.694;2023-02-19T12:52:19;100614.06;;;12.63;82.35
38716;BME280;24833;49.324;8.694;2023-02-19T12:54:52;100613.16;;;12.56;81.37
38716;BME280;24833;49.324;8.694;2023-02-19T12:57:33;100610.25;;;12.51;82.25
38716;BME280;24833;49.324;8.694;2023-02-19T13:02:52;100604.78;;;12.44;82.06
38716;BME280;24833;49.324;8.694;2023-02-19T13:05:45;100598.13;;;12.40;81.93
38716;BME280;24833;49.324;8.694;2023-02-19T13:08:31;100602.59;;;12.33;82.00
38716;BME280;24833;49.324;8.694;2023-02-19T13:11:09;100610.16;;;12.30;81.89
38716;BME280;24833;49.324;8.694;2023-02-19T13:13:54;100622.63;;;12.22;81.68
38716;BME280;24833;49.324;8.694;2023-02-19T13:16:25;100611.47;;;12.19;81.61
38716;BME280;24833;49.324;8.694;2023-02-19T13:19:03;100613.03;;;12.13;81.63
38716;BME280;24833;49.324;8.694;2023-02-19T13:21:34;100608.41;;;12.07;81.49
38716;BME280;24833;49.324;8.694;2023-02-19T13:24:30;100597.41;;;12.02;81.00
38716;BME280;24833;49.324;8.694;2023-02-19T13:31:09;100592.53;;;11.91;81.79
38716;BME280;24833;49.324;8.694;2023-02-19T13:34:19;100600.56;;;11.91;81.45
38716;BME280;24833;49.324;8.694;2023-02-19T13:36:53;100591.88;;;11.89;81.03
38716;BME280;24833;49.324;8.694;2023-02-19T13:39:21;100589.19;;;11.89;81.39
38716;BME280;24833;49.324;8.694;2023-02-19T13:41:52;100593.72;;;11.88;80.89
38716;BME280;24833;49.324;8.694;2023-02-19T13:44:24;100592.88;;;11.88;80.84
38716;BME280;24833;49.324;8.694;2023-02-19T13:46:52;100589.19;;;11.89;81.46
38716;BME280;24833;49.324;8.694;2023-02-19T13:52:02;100586.63;;;11.95;81.67
38716;BME280;24833;49.324;8.694;2023-02-19T13:54:32;100586.06;;;12.00;81.05
38716;BME280;24833;49.324;8.694;2023-02-19T13:59:49;100589.38;;;12.02;80.45
38716;BME280;24833;49.324;8.694;2023-02-19T14:05:03;100596.59;;;12.02;80.39
38716;BME280;24833;49.324;8.694;2023-02-19T14:07:46;100586.91;;;12.00;79.93
38716;BME280;24833;49.324;8.694;2023-02-19T14:10:53;100588.94;;;11.98;79.90
38716;BME280;24833;49.324;8.694;2023-02-19T14:16:48;100589.13;;;11.97;80.14
38716;BME280;24833;49.324;8.694;2023-02-19T14:33:48;100614.41;;;11.94;80.17
38716;BME280;24833;49.324;8.694;2023-02-19T14:36:38;100620.97;;;11.92;79.48
38716;BME280;24833;49.324;8.694;2023-02-19T14:39:19;100618.63;;;11.89;79.63
38716;BME280;24833;49.324;8.694;2023-02-19T14:41:52;100643.09;;;11.86;79.03
38716;BME280;24833;49.324;8.694;2023-02-19T14:44:26;100644.28;;;11.83;79.46
38716;BME280;24833;49.324;8.694;2023-02-19T14:47:04;100636.78;;;11.79;79.10
38716;BME280;24833;49.324;8.694;2023-02-19T14:49:43;100637.31;;;11.74;79.57
38716;BME280;24833;49.324;8.694;2023-02-19T14:52:30;100642.22;;;11.70;79.34
38716;BME280;24833;49.324;8.694;2023-02-19T14:55:06;100653.25;;;11.67;79.53
38716;BME280;24833;49.324;8.694;2023-02-19T14:57:40;100646.44;;;11.65;79.00
38716;BME280;24833;49.324;8.694;2023-02-19T15:00:28;100656.47;;;11.63;79.03
38716;BME280;24833;49.324;8.694;2023-02-19T15:02:56;100651.69;;;11.58;78.88
38716;BME280;24833;49.324;8.694;2023-02-19T15:05:29;100659.22;;;11.55;79.05